Newton-le-Willows, United Kingdom
Current Conditions -  °F | °C
As of 5:50 PM on Saturday 25 Oct 2014 (Local Time) from EGGP Reporting Station
Scattered Clouds Scattered Clouds  
Wind Chill: 13°   Ceiling: Unl
Heat Index: 13°   Visibility: 6mi
Dew Point:   Wind: 9mph
Humidity: 77%   Direction: 230°SW
Pressure: 29.94"   Gusts: NA
Location:  53.45°N, 2.6°W
Report Text: EGGP 251650Z 23008KT 9999 FEW025 SCT040 13/09 Q1014
Loading
Personal Weather Stations






























Interactive Weather Map
Tropical Storm Tracking
New forecast layout! Learn more

10-Day Weather Forecast

Advertisements
Track Severe Weather on mobile